sensor_id;sensor_type;location;lat;lon;timestamp;pressure;altitude;pressure_sealevel;temperature;humidity
34065;BME280;20339;49.754;20.158;2023-10-31T00:00:39;95475.77;;;14.58;76.16
34065;BME280;20339;49.754;20.158;2023-10-31T00:03:30;95474.00;;;14.69;75.58
34065;BME280;20339;49.754;20.158;2023-10-31T00:06:01;95466.36;;;14.57;75.48
34065;BME280;20339;49.754;20.158;2023-10-31T00:08:35;95462.44;;;14.37;75.68
34065;BME280;20339;49.754;20.158;2023-10-31T00:11:06;95460.26;;;14.23;75.83
34065;BME280;20339;49.754;20.158;2023-10-31T00:13:37;95454.89;;;14.10;75.92
34065;BME280;20339;49.754;20.158;2023-10-31T00:16:09;95446.89;;;13.98;76.20
34065;BME280;20339;49.754;20.158;2023-10-31T00:18:40;95438.44;;;13.94;76.38
34065;BME280;20339;49.754;20.158;2023-10-31T00:21:11;95445.51;;;13.91;76.53
34065;BME280;20339;49.754;20.158;2023-10-31T00:23:45;95445.13;;;13.91;76.49
34065;BME280;20339;49.754;20.158;2023-10-31T00:26:17;95450.32;;;13.94;76.46
34065;BME280;20339;49.754;20.158;2023-10-31T00:28:48;95444.30;;;14.03;76.17
34065;BME280;20339;49.754;20.158;2023-10-31T00:31:18;95436.61;;;14.11;76.08
34065;BME280;20339;49.754;20.158;2023-10-31T00:33:50;95428.34;;;14.16;75.81
34065;BME280;20339;49.754;20.158;2023-10-31T00:36:20;95425.52;;;14.20;75.80
34065;BME280;20339;49.754;20.158;2023-10-31T00:38:51;95413.87;;;14.53;75.64
34065;BME280;20339;49.754;20.158;2023-10-31T00:41:22;95408.65;;;15.26;74.14
34065;BME280;20339;49.754;20.158;2023-10-31T00:43:53;95404.55;;;15.43;72.83
34065;BME280;20339;49.754;20.158;2023-10-31T00:46:24;95399.16;;;15.54;72.00
34065;BME280;20339;49.754;20.158;2023-10-31T00:48:54;95390.34;;;15.74;71.30
34065;BME280;20339;49.754;20.158;2023-10-31T00:51:25;95393.20;;;15.92;70.50
34065;BME280;20339;49.754;20.158;2023-10-31T00:53:56;95390.37;;;16.10;69.50
34065;BME280;20339;49.754;20.158;2023-10-31T00:56:27;95387.48;;;16.28;68.54
34065;BME280;20339;49.754;20.158;2023-10-31T00:58:58;95378.41;;;16.38;67.85
34065;BME280;20339;49.754;20.158;2023-10-31T01:01:29;95375.69;;;16.43;67.05
34065;BME280;20339;49.754;20.158;2023-10-31T01:04:00;95373.77;;;16.51;65.90
34065;BME280;20339;49.754;20.158;2023-10-31T01:06:30;95369.00;;;16.67;65.25
34065;BME280;20339;49.754;20.158;2023-10-31T01:09:01;95350.35;;;16.64;65.01
34065;BME280;20339;49.754;20.158;2023-10-31T01:11:32;95346.39;;;16.54;64.94
34065;BME280;20339;49.754;20.158;2023-10-31T01:14:04;95345.84;;;16.44;64.76
34065;BME280;20339;49.754;20.158;2023-10-31T01:16:35;95336.94;;;16.36;64.81
34065;BME280;20339;49.754;20.158;2023-10-31T01:19:06;95325.39;;;16.30;64.72
34065;BME280;20339;49.754;20.158;2023-10-31T01:21:40;95316.85;;;16.27;64.37
34065;BME280;20339;49.754;20.158;2023-10-31T01:24:11;95316.09;;;16.27;64.10
34065;BME280;20339;49.754;20.158;2023-10-31T01:26:42;95305.95;;;16.29;63.86
34065;BME280;20339;49.754;20.158;2023-10-31T01:29:13;95303.16;;;16.30;63.75
34065;BME280;20339;49.754;20.158;2023-10-31T01:31:44;95298.48;;;16.29;63.76
34065;BME280;20339;49.754;20.158;2023-10-31T01:34:15;95289.70;;;16.29;63.42
34065;BME280;20339;49.754;20.158;2023-10-31T01:36:46;95283.84;;;16.36;63.27
34065;BME280;20339;49.754;20.158;2023-10-31T01:39:16;95285.48;;;16.38;62.93
34065;BME280;20339;49.754;20.158;2023-10-31T01:41:47;95275.98;;;16.37;62.96
34065;BME280;20339;49.754;20.158;2023-10-31T01:44:18;95268.02;;;16.30;62.83
34065;BME280;20339;49.754;20.158;2023-10-31T01:46:49;95270.46;;;16.27;62.77
34065;BME280;20339;49.754;20.158;2023-10-31T01:49:20;95267.08;;;16.39;60.98
34065;BME280;20339;49.754;20.158;2023-10-31T01:51:52;95267.41;;;16.96;59.55
34065;BME280;20339;49.754;20.158;2023-10-31T01:54:23;95271.45;;;17.22;58.77
34065;BME280;20339;49.754;20.158;2023-10-31T01:56:57;95272.34;;;17.32;58.43
34065;BME280;20339;49.754;20.158;2023-10-31T01:59:29;95275.52;;;17.42;57.42
34065;BME280;20339;49.754;20.158;2023-10-31T02:02:00;95273.20;;;17.69;55.73
34065;BME280;20339;49.754;20.158;2023-10-31T02:04:31;95267.38;;;17.91;55.53
34065;BME280;20339;49.754;20.158;2023-10-31T02:07:02;95270.86;;;17.97;55.01
34065;BME280;20339;49.754;20.158;2023-10-31T02:09:33;95260.73;;;18.10;54.45
34065;BME280;20339;49.754;20.158;2023-10-31T02:12:05;95254.57;;;18.27;53.23
34065;BME280;20339;49.754;20.158;2023-10-31T02:14:36;95252.49;;;18.38;52.85
34065;BME280;20339;49.754;20.158;2023-10-31T02:17:06;95241.76;;;18.47;51.89
34065;BME280;20339;49.754;20.158;2023-10-31T02:19:37;95235.39;;;18.63;50.67
34065;BME280;20339;49.754;20.158;2023-10-31T02:22:08;95236.47;;;18.59;51.40
34065;BME280;20339;49.754;20.158;2023-10-31T02:24:41;95231.90;;;18.50;51.48
34065;BME280;20339;49.754;20.158;2023-10-31T02:27:12;95237.85;;;18.48;51.62
34065;BME280;20339;49.754;20.158;2023-10-31T02:29:43;95234.02;;;18.38;51.65
34065;BME280;20339;49.754;20.158;2023-10-31T02:32:14;95237.27;;;18.40;51.12
34065;BME280;20339;49.754;20.158;2023-10-31T02:34:45;95230.95;;;18.37;51.39
34065;BME280;20339;49.754;20.158;2023-10-31T02:37:16;95216.69;;;18.27;51.55
34065;BME280;20339;49.754;20.158;2023-10-31T02:39:47;95208.65;;;18.17;51.89
34065;BME280;20339;49.754;20.158;2023-10-31T02:42:18;95211.83;;;18.03;51.97
34065;BME280;20339;49.754;20.158;2023-10-31T02:44:49;95212.31;;;17.91;52.16
34065;BME280;20339;49.754;20.158;2023-10-31T02:47:20;95211.00;;;17.81;52.24
34065;BME280;20339;49.754;20.158;2023-10-31T02:49:51;95204.80;;;17.75;52.28
34065;BME280;20339;49.754;20.158;2023-10-31T02:52:22;95199.56;;;17.71;52.27
34065;BME280;20339;49.754;20.158;2023-10-31T02:54:53;95197.38;;;17.68;52.29
34065;BME280;20339;49.754;20.158;2023-10-31T02:57:23;95194.88;;;17.70;52.25
34065;BME280;20339;49.754;20.158;2023-10-31T02:59:54;95193.05;;;17.67;52.16
34065;BME280;20339;49.754;20.158;2023-10-31T03:02:25;95194.98;;;17.68;52.20
34065;BME280;20339;49.754;20.158;2023-10-31T03:04:56;95196.55;;;17.69;51.93
34065;BME280;20339;49.754;20.158;2023-10-31T03:07:27;95201.61;;;17.78;51.53
34065;BME280;20339;49.754;20.158;2023-10-31T03:09:58;95202.90;;;17.83;51.42
34065;BME280;20339;49.754;20.158;2023-10-31T03:12:29;95205.00;;;17.94;50.76
34065;BME280;20339;49.754;20.158;2023-10-31T03:14:59;95200.44;;;18.01;50.71
34065;BME280;20339;49.754;20.158;2023-10-31T03:17:30;95199.65;;;18.09;50.16
34065;BME280;20339;49.754;20.158;2023-10-31T03:20:01;95201.80;;;18.30;49.08
34065;BME280;20339;49.754;20.158;2023-10-31T03:22:32;95203.83;;;18.50;49.04
34065;BME280;20339;49.754;20.158;2023-10-31T03:25:04;95208.69;;;18.52;49.33
34065;BME280;20339;49.754;20.158;2023-10-31T03:27:36;95206.48;;;18.53;49.18
34065;BME280;20339;49.754;20.158;2023-10-31T03:30:09;95209.42;;;18.56;49.32
34065;BME280;20339;49.754;20.158;2023-10-31T03:32:40;95206.84;;;18.51;49.52
34065;BME280;20339;49.754;20.158;2023-10-31T03:35:10;95195.73;;;18.52;49.24
34065;BME280;20339;49.754;20.158;2023-10-31T03:37:42;95186.34;;;18.60;49.23
34065;BME280;20339;49.754;20.158;2023-10-31T03:40:13;95170.69;;;18.65;48.98
34065;BME280;20339;49.754;20.158;2023-10-31T03:42:44;95164.77;;;18.64;49.28
34065;BME280;20339;49.754;20.158;2023-10-31T03:45:17;95159.89;;;18.61;49.00
34065;BME280;20339;49.754;20.158;2023-10-31T03:47:48;95166.05;;;18.73;48.97
34065;BME280;20339;49.754;20.158;2023-10-31T03:50:19;95161.34;;;18.71;48.82
34065;BME280;20339;49.754;20.158;2023-10-31T03:52:50;95152.52;;;18.72;48.81
34065;BME280;20339;49.754;20.158;2023-10-31T03:55:20;95138.45;;;18.69;49.08
34065;BME280;20339;49.754;20.158;2023-10-31T03:57:51;95130.98;;;18.66;48.94
34065;BME280;20339;49.754;20.158;2023-10-31T04:00:22;95130.83;;;18.72;48.61
34065;BME280;20339;49.754;20.158;2023-10-31T04:02:53;95135.66;;;18.79;48.38
34065;BME280;20339;49.754;20.158;2023-10-31T04:05:24;95138.45;;;18.74;48.52
34065;BME280;20339;49.754;20.158;2023-10-31T04:07:55;95134.73;;;18.72;48.39
34065;BME280;20339;49.754;20.158;2023-10-31T04:10:26;95135.05;;;18.67;48.23
34065;BME280;20339;49.754;20.158;2023-10-31T04:12:56;95133.66;;;18.65;48.50
34065;BME280;20339;49.754;20.158;2023-10-31T04:15:27;95137.88;;;18.65;48.30
34065;BME280;20339;49.754;20.158;2023-10-31T04:17:58;95132.89;;;18.65;47.98
34065;BME280;20339;49.754;20.158;2023-10-31T04:20:29;95125.35;;;18.63;47.91
34065;BME280;20339;49.754;20.158;2023-10-31T04:23:00;95113.77;;;18.63;47.51
34065;BME280;20339;49.754;20.158;2023-10-31T04:25:31;95109.11;;;18.71;47.29
34065;BME280;20339;49.754;20.158;2023-10-31T04:28:02;95114.80;;;18.73;47.42
34065;BME280;20339;49.754;20.158;2023-10-31T04:30:33;95110.27;;;18.79;46.79
34065;BME280;20339;49.754;20.158;2023-10-31T04:33:04;95104.36;;;18.86;46.79
34065;BME280;20339;49.754;20.158;2023-10-31T04:35:34;95106.02;;;18.85;46.61
34065;BME280;20339;49.754;20.158;2023-10-31T04:38:05;95106.10;;;18.84;46.83
34065;BME280;20339;49.754;20.158;2023-10-31T04:40:36;95109.77;;;18.83;47.06
34065;BME280;20339;49.754;20.158;2023-10-31T04:43:07;95113.04;;;18.80;46.92
34065;BME280;20339;49.754;20.158;2023-10-31T04:45:38;95116.42;;;18.80;47.04
34065;BME280;20339;49.754;20.158;2023-10-31T04:48:09;95118.80;;;18.73;47.51
34065;BME280;20339;49.754;20.158;2023-10-31T04:50:40;95119.72;;;18.62;47.91
34065;BME280;20339;49.754;20.158;2023-10-31T04:53:11;95113.08;;;18.46;48.36
34065;BME280;20339;49.754;20.158;2023-10-31T04:55:42;95116.16;;;18.29;48.93
34065;BME280;20339;49.754;20.158;2023-10-31T04:58:13;95112.83;;;18.15;49.54
34065;BME280;20339;49.754;20.158;2023-10-31T05:00:44;95113.67;;;17.94;50.10
34065;BME280;20339;49.754;20.158;2023-10-31T05:03:15;95104.52;;;17.71;50.48
34065;BME280;20339;49.754;20.158;2023-10-31T05:05:46;95093.03;;;17.57;50.62
34065;BME280;20339;49.754;20.158;2023-10-31T05:08:17;95091.00;;;17.44;51.03
34065;BME280;20339;49.754;20.158;2023-10-31T05:10:48;95093.45;;;17.34;51.18
34065;BME280;20339;49.754;20.158;2023-10-31T05:13:19;95097.80;;;17.29;51.44
34065;BME280;20339;49.754;20.158;2023-10-31T05:15:50;95106.17;;;17.22;51.85
34065;BME280;20339;49.754;20.158;2023-10-31T05:18:20;95112.20;;;17.12;52.07
34065;BME280;20339;49.754;20.158;2023-10-31T05:20:51;95107.20;;;17.02;52.29
34065;BME280;20339;49.754;20.158;2023-10-31T05:23:22;95110.99;;;16.91;52.43
34065;BME280;20339;49.754;20.158;2023-10-31T05:25:53;95119.58;;;16.84;52.57
34065;BME280;20339;49.754;20.158;2023-10-31T05:28:25;95120.92;;;16.78;52.81
34065;BME280;20339;49.754;20.158;2023-10-31T05:30:56;95126.45;;;16.69;53.14
34065;BME280;20339;49.754;20.158;2023-10-31T05:33:27;95142.12;;;16.54;53.31
34065;BME280;20339;49.754;20.158;2023-10-31T05:35:58;95148.88;;;16.44;53.66
34065;BME280;20339;49.754;20.158;2023-10-31T05:38:29;95146.77;;;16.38;54.09
34065;BME280;20339;49.754;20.158;2023-10-31T05:41:00;95146.02;;;16.28;54.40
34065;BME280;20339;49.754;20.158;2023-10-31T05:43:31;95134.23;;;16.19;54.73
34065;BME280;20339;49.754;20.158;2023-10-31T05:46:03;95127.59;;;16.13;54.83
34065;BME280;20339;49.754;20.158;2023-10-31T05:48:35;95136.59;;;16.05;55.14
34065;BME280;20339;49.754;20.158;2023-10-31T05:51:10;95146.20;;;15.91;55.29
34065;BME280;20339;49.754;20.158;2023-10-31T05:53:42;95126.15;;;15.79;56.04
34065;BME280;20339;49.754;20.158;2023-10-31T05:56:15;95138.92;;;15.69;56.56
34065;BME280;20339;49.754;20.158;2023-10-31T05:58:46;95134.84;;;15.62;57.11
34065;BME280;20339;49.754;20.158;2023-10-31T06:01:17;95142.25;;;15.53;57.32
34065;BME280;20339;49.754;20.158;2023-10-31T06:03:48;95136.40;;;15.32;57.41
34065;BME280;20339;49.754;20.158;2023-10-31T06:06:19;95130.89;;;15.13;57.86
34065;BME280;20339;49.754;20.158;2023-10-31T06:08:50;95121.54;;;15.06;58.10
34065;BME280;20339;49.754;20.158;2023-10-31T06:11:21;95122.10;;;15.03;58.56
34065;BME280;20339;49.754;20.158;2023-10-31T06:13:52;95118.69;;;14.90;59.10
34065;BME280;20339;49.754;20.158;2023-10-31T06:16:23;95123.23;;;14.74;59.73
34065;BME280;20339;49.754;20.158;2023-10-31T06:18:54;95119.79;;;14.65;60.25
34065;BME280;20339;49.754;20.158;2023-10-31T06:21:25;95120.90;;;14.62;60.90
34065;BME280;20339;49.754;20.158;2023-10-31T06:23:56;95126.30;;;14.61;61.25
34065;BME280;20339;49.754;20.158;2023-10-31T06:26:34;95131.06;;;14.63;61.57
34065;BME280;20339;49.754;20.158;2023-10-31T06:29:05;95141.13;;;14.65;61.80
34065;BME280;20339;49.754;20.158;2023-10-31T06:31:36;95143.31;;;14.64;62.34
34065;BME280;20339;49.754;20.158;2023-10-31T06:34:07;95131.11;;;14.53;62.60
34065;BME280;20339;49.754;20.158;2023-10-31T06:36:38;95123.61;;;14.52;62.46
34065;BME280;20339;49.754;20.158;2023-10-31T06:39:09;95129.71;;;14.85;61.81
34065;BME280;20339;49.754;20.158;2023-10-31T06:41:40;95134.67;;;15.24;61.28
34065;BME280;20339;49.754;20.158;2023-10-31T06:44:11;95137.58;;;15.75;60.20
34065;BME280;20339;49.754;20.158;2023-10-31T06:46:42;95134.21;;;16.22;58.82
34065;BME280;20339;49.754;20.158;2023-10-31T06:49:13;95135.89;;;16.66;57.20
34065;BME280;20339;49.754;20.158;2023-10-31T06:51:44;95133.56;;;16.96;56.29
34065;BME280;20339;49.754;20.158;2023-10-31T06:54:15;95148.19;;;17.09;55.90
34065;BME280;20339;49.754;20.158;2023-10-31T06:56:46;95154.83;;;17.12;55.72
34065;BME280;20339;49.754;20.158;2023-10-31T06:59:18;95150.64;;;17.17;55.43
34065;BME280;20339;49.754;20.158;2023-10-31T07:01:49;95149.52;;;17.28;54.84
34065;BME280;20339;49.754;20.158;2023-10-31T07:04:20;95147.25;;;17.39;54.53
34065;BME280;20339;49.754;20.158;2023-10-31T07:06:51;95148.16;;;17.47;54.39
34065;BME280;20339;49.754;20.158;2023-10-31T07:09:26;95153.20;;;17.56;54.06
34065;BME280;20339;49.754;20.158;2023-10-31T07:11:58;95142.02;;;17.65;53.65
34065;BME280;20339;49.754;20.158;2023-10-31T07:14:29;95141.91;;;17.76;53.04
34065;BME280;20339;49.754;20.158;2023-10-31T07:17:00;95147.20;;;17.91;52.65
34065;BME280;20339;49.754;20.158;2023-10-31T07:19:30;95143.88;;;18.00;52.70
34065;BME280;20339;49.754;20.158;2023-10-31T07:22:01;95140.58;;;18.04;52.82
34065;BME280;20339;49.754;20.158;2023-10-31T07:24:32;95138.41;;;18.08;53.15
34065;BME280;20339;49.754;20.158;2023-10-31T07:27:04;95134.82;;;18.09;53.19
34065;BME280;20339;49.754;20.158;2023-10-31T07:29:36;95119.48;;;18.07;53.14
34065;BME280;20339;49.754;20.158;2023-10-31T07:32:10;95120.80;;;18.09;53.50
34065;BME280;20339;49.754;20.158;2023-10-31T07:34:43;95100.76;;;18.13;53.13
34065;BME280;20339;49.754;20.158;2023-10-31T07:37:14;95079.46;;;18.19;52.75
34065;BME280;20339;49.754;20.158;2023-10-31T07:39:44;95073.06;;;18.27;52.50
34065;BME280;20339;49.754;20.158;2023-10-31T07:42:15;95071.88;;;18.37;52.43
34065;BME280;20339;49.754;20.158;2023-10-31T07:44:46;95104.88;;;18.46;52.54
34065;BME280;20339;49.754;20.158;2023-10-31T07:47:17;95102.20;;;18.42;52.15
34065;BME280;20339;49.754;20.158;2023-10-31T07:49:48;95102.70;;;18.44;52.46
34065;BME280;20339;49.754;20.158;2023-10-31T07:52:19;95106.80;;;18.46;52.68
34065;BME280;20339;49.754;20.158;2023-10-31T07:54:50;95124.19;;;18.45;53.01
34065;BME280;20339;49.754;20.158;2023-10-31T07:57:21;95128.77;;;18.44;53.20
34065;BME280;20339;49.754;20.158;2023-10-31T07:59:52;95140.38;;;18.41;52.69
34065;BME280;20339;49.754;20.158;2023-10-31T08:02:23;95147.23;;;18.36;52.38
34065;BME280;20339;49.754;20.158;2023-10-31T08:04:54;95152.48;;;18.33;52.51
34065;BME280;20339;49.754;20.158;2023-10-31T08:07:24;95162.18;;;18.26;52.97
34065;BME280;20339;49.754;20.158;2023-10-31T08:09:59;95168.62;;;18.20;53.22
34065;BME280;20339;49.754;20.158;2023-10-31T08:12:30;95171.23;;;18.15;53.56
34065;BME280;20339;49.754;20.158;2023-10-31T08:15:01;95178.39;;;18.12;53.77
34065;BME280;20339;49.754;20.158;2023-10-31T08:17:32;95173.13;;;18.09;54.01
34065;BME280;20339;49.754;20.158;2023-10-31T08:20:03;95168.98;;;18.03;54.19
34065;BME280;20339;49.754;20.158;2023-10-31T08:22:35;95165.17;;;18.00;54.43
34065;BME280;20339;49.754;20.158;2023-10-31T08:25:07;95171.80;;;17.97;54.61
34065;BME280;20339;49.754;20.158;2023-10-31T08:27:38;95176.83;;;17.95;54.60
34065;BME280;20339;49.754;20.158;2023-10-31T08:30:11;95179.30;;;17.97;54.99
34065;BME280;20339;49.754;20.158;2023-10-31T08:32:42;95177.20;;;17.95;54.85
34065;BME280;20339;49.754;20.158;2023-10-31T08:35:13;95163.60;;;17.97;54.94
34065;BME280;20339;49.754;20.158;2023-10-31T08:37:44;95158.44;;;17.96;55.07
34065;BME280;20339;49.754;20.158;2023-10-31T08:40:15;95152.95;;;17.97;55.19
34065;BME280;20339;49.754;20.158;2023-10-31T08:42:46;95140.44;;;17.95;55.59
34065;BME280;20339;49.754;20.158;2023-10-31T08:45:17;95141.18;;;17.88;55.75
34065;BME280;20339;49.754;20.158;2023-10-31T08:47:48;95145.82;;;17.81;56.27
34065;BME280;20339;49.754;20.158;2023-10-31T08:50:19;95149.20;;;17.77;56.28
34065;BME280;20339;49.754;20.158;2023-10-31T08:52:50;95150.83;;;17.73;56.36
34065;BME280;20339;49.754;20.158;2023-10-31T08:55:21;95156.48;;;17.68;56.62
34065;BME280;20339;49.754;20.158;2023-10-31T08:57:52;95154.52;;;17.66;56.64
34065;BME280;20339;49.754;20.158;2023-10-31T09:00:23;95168.67;;;17.65;56.69
34065;BME280;20339;49.754;20.158;2023-10-31T09:02:54;95163.10;;;17.66;56.81
34065;BME280;20339;49.754;20.158;2023-10-31T09:05:28;95159.52;;;17.67;56.68
34065;BME280;20339;49.754;20.158;2023-10-31T09:07:59;95170.02;;;17.68;56.71
34065;BME280;20339;49.754;20.158;2023-10-31T09:10:32;95173.50;;;17.68;56.69
34065;BME280;20339;49.754;20.158;2023-10-31T09:13:03;95174.98;;;17.67;56.78
34065;BME280;20339;49.754;20.158;2023-10-31T09:15:34;95177.20;;;17.67;56.80
34065;BME280;20339;49.754;20.158;2023-10-31T09:18:06;95179.19;;;17.67;57.00
34065;BME280;20339;49.754;20.158;2023-10-31T09:20:37;95188.61;;;17.67;57.02
34065;BME280;20339;49.754;20.158;2023-10-31T09:23:08;95194.79;;;17.69;57.05
34065;BME280;20339;49.754;20.158;2023-10-31T09:25:39;95195.42;;;17.67;57.00
34065;BME280;20339;49.754;20.158;2023-10-31T09:28:10;95201.67;;;17.65;57.05
34065;BME280;20339;49.754;20.158;2023-10-31T09:30:41;95212.21;;;17.63;56.95
34065;BME280;20339;49.754;20.158;2023-10-31T09:33:12;95215.31;;;17.61;57.05
34065;BME280;20339;49.754;20.158;2023-10-31T09:35:43;95218.83;;;17.57;57.11
34065;BME280;20339;49.754;20.158;2023-10-31T09:38:14;95211.17;;;17.52;56.90
34065;BME280;20339;49.754;20.158;2023-10-31T09:40:45;95220.40;;;17.50;57.03
34065;BME280;20339;49.754;20.158;2023-10-31T09:43:16;95223.70;;;17.46;57.13
34065;BME280;20339;49.754;20.158;2023-10-31T09:45:47;95215.88;;;17.42;57.27
34065;BME280;20339;49.754;20.158;2023-10-31T09:48:19;95217.75;;;17.39;57.23
34065;BME280;20339;49.754;20.158;2023-10-31T09:50:51;95217.78;;;17.41;57.27
34065;BME280;20339;49.754;20.158;2023-10-31T09:53:23;95213.23;;;17.38;57.17
34065;BME280;20339;49.754;20.158;2023-10-31T09:55:54;95210.48;;;17.34;56.61
34065;BME280;20339;49.754;20.158;2023-10-31T09:58:26;95214.41;;;17.32;56.40
34065;BME280;20339;49.754;20.158;2023-10-31T10:00:58;95216.62;;;17.32;56.02
34065;BME280;20339;49.754;20.158;2023-10-31T10:03:29;95220.38;;;17.29;56.20
34065;BME280;20339;49.754;20.158;2023-10-31T10:06:01;95219.51;;;17.22;56.27
34065;BME280;20339;49.754;20.158;2023-10-31T10:08:33;95211.11;;;17.16;56.37
34065;BME280;20339;49.754;20.158;2023-10-31T10:11:08;95220.55;;;17.08;56.48
34065;BME280;20339;49.754;20.158;2023-10-31T10:13:39;95216.27;;;17.04;56.64
34065;BME280;20339;49.754;20.158;2023-10-31T10:16:10;95228.94;;;17.00;56.89
34065;BME280;20339;49.754;20.158;2023-10-31T10:18:41;95229.88;;;16.93;56.94
34065;BME280;20339;49.754;20.158;2023-10-31T10:21:13;95234.91;;;16.85;57.29
34065;BME280;20339;49.754;20.158;2023-10-31T10:23:48;95233.67;;;16.77;57.32
34065;BME280;20339;49.754;20.158;2023-10-31T10:26:23;95212.79;;;16.65;57.54
34065;BME280;20339;49.754;20.158;2023-10-31T10:28:55;95218.75;;;16.61;57.66
34065;BME280;20339;49.754;20.158;2023-10-31T10:31:26;95202.99;;;16.59;57.74
34065;BME280;20339;49.754;20.158;2023-10-31T10:33:57;95210.34;;;16.51;57.98
34065;BME280;20339;49.754;20.158;2023-10-31T10:36:33;95211.58;;;16.42;58.42
34065;BME280;20339;49.754;20.158;2023-10-31T10:39:04;95206.42;;;16.30;58.81
34065;BME280;20339;49.754;20.158;2023-10-31T10:41:37;95195.20;;;16.16;59.32
34065;BME280;20339;49.754;20.158;2023-10-31T10:44:12;95217.05;;;16.03;59.87
34065;BME280;20339;49.754;20.158;2023-10-31T10:46:46;95197.93;;;15.95;60.30
34065;BME280;20339;49.754;20.158;2023-10-31T10:49:22;95213.29;;;15.86;60.92
34065;BME280;20339;49.754;20.158;2023-10-31T10:52:01;95199.75;;;15.82;61.17
34065;BME280;20339;49.754;20.158;2023-10-31T10:54:34;95205.13;;;15.83;61.19
34065;BME280;20339;49.754;20.158;2023-10-31T10:57:12;95213.19;;;15.88;61.28
34065;BME280;20339;49.754;20.158;2023-10-31T10:59:48;95229.38;;;15.88;61.41
34065;BME280;20339;49.754;20.158;2023-10-31T11:02:20;95244.07;;;15.87;61.55
34065;BME280;20339;49.754;20.158;2023-10-31T11:04:52;95237.00;;;15.85;61.72
34065;BME280;20339;49.754;20.158;2023-10-31T11:07:25;95237.05;;;15.83;61.97
34065;BME280;20339;49.754;20.158;2023-10-31T11:09:58;95253.84;;;15.80;62.26
34065;BME280;20339;49.754;20.158;2023-10-31T11:12:32;95249.83;;;15.75;62.76
34065;BME280;20339;49.754;20.158;2023-10-31T11:15:05;95262.61;;;15.71;63.08
34065;BME280;20339;49.754;20.158;2023-10-31T11:17:38;95260.04;;;15.69;63.34
34065;BME280;20339;49.754;20.158;2023-10-31T11:20:11;95268.20;;;15.68;63.53
34065;BME280;20339;49.754;20.158;2023-10-31T11:22:45;95269.35;;;15.65;63.82
34065;BME280;20339;49.754;20.158;2023-10-31T11:25:20;95266.24;;;15.59;64.19
34065;BME280;20339;49.754;20.158;2023-10-31T11:27:53;95267.67;;;15.51;64.56
34065;BME280;20339;49.754;20.158;2023-10-31T11:30:29;95271.32;;;15.49;64.71
34065;BME280;20339;49.754;20.158;2023-10-31T11:33:00;95273.22;;;15.48;64.87
34065;BME280;20339;49.754;20.158;2023-10-31T11:35:35;95263.52;;;15.50;65.36
34065;BME280;20339;49.754;20.158;2023-10-31T11:38:08;95269.94;;;15.51;65.53
34065;BME280;20339;49.754;20.158;2023-10-31T11:40:59;95261.38;;;15.48;65.99
34065;BME280;20339;49.754;20.158;2023-10-31T11:43:54;95265.27;;;15.41;66.42
34065;BME280;20339;49.754;20.158;2023-10-31T11:46:26;95279.35;;;15.35;66.99
34065;BME280;20339;49.754;20.158;2023-10-31T11:48:58;95283.95;;;15.27;67.41
34065;BME280;20339;49.754;20.158;2023-10-31T11:51:31;95283.68;;;15.20;67.58
34065;BME280;20339;49.754;20.158;2023-10-31T11:54:03;95280.84;;;15.20;67.83
34065;BME280;20339;49.754;20.158;2023-10-31T11:56:38;95285.40;;;15.21;67.77
34065;BME280;20339;49.754;20.158;2023-10-31T11:59:08;95292.17;;;15.23;67.96
34065;BME280;20339;49.754;20.158;2023-10-31T12:01:47;95290.50;;;15.21;68.17
34065;BME280;20339;49.754;20.158;2023-10-31T12:04:24;95288.06;;;15.19;68.10
34065;BME280;20339;49.754;20.158;2023-10-31T12:07:01;95273.85;;;15.18;68.43
34065;BME280;20339;49.754;20.158;2023-10-31T12:09:33;95264.69;;;15.20;68.45
34065;BME280;20339;49.754;20.158;2023-10-31T12:12:15;95253.25;;;15.23;68.66
34065;BME280;20339;49.754;20.158;2023-10-31T12:14:46;95241.91;;;15.24;69.10
34065;BME280;20339;49.754;20.158;2023-10-31T12:17:17;95237.20;;;15.30;69.26
34065;BME280;20339;49.754;20.158;2023-10-31T12:19:48;95237.47;;;15.37;69.11
34065;BME280;20339;49.754;20.158;2023-10-31T12:22:19;95234.41;;;15.43;69.04
34065;BME280;20339;49.754;20.158;2023-10-31T12:24:51;95237.86;;;15.47;68.95
34065;BME280;20339;49.754;20.158;2023-10-31T12:27:22;95245.04;;;15.50;68.93
34065;BME280;20339;49.754;20.158;2023-10-31T12:30:03;95237.02;;;15.47;69.02
34065;BME280;20339;49.754;20.158;2023-10-31T12:32:34;95238.02;;;15.45;68.93
34065;BME280;20339;49.754;20.158;2023-10-31T12:35:06;95241.14;;;15.44;68.75
34065;BME280;20339;49.754;20.158;2023-10-31T12:37:39;95242.40;;;15.42;68.90
34065;BME280;20339;49.754;20.158;2023-10-31T12:40:12;95231.22;;;15.37;68.93
34065;BME280;20339;49.754;20.158;2023-10-31T12:42:46;95228.88;;;15.30;69.03
34065;BME280;20339;49.754;20.158;2023-10-31T12:45:19;95226.35;;;15.23;69.27
34065;BME280;20339;49.754;20.158;2023-10-31T12:48:03;95232.01;;;15.21;69.37
34065;BME280;20339;49.754;20.158;2023-10-31T12:50:36;95231.29;;;15.18;69.60
34065;BME280;20339;49.754;20.158;2023-10-31T12:53:09;95232.08;;;15.16;69.60
34065;BME280;20339;49.754;20.158;2023-10-31T12:55:42;95238.77;;;15.15;69.80
34065;BME280;20339;49.754;20.158;2023-10-31T12:58:21;95241.13;;;15.20;69.98
34065;BME280;20339;49.754;20.158;2023-10-31T13:00:53;95235.68;;;15.28;70.10
34065;BME280;20339;49.754;20.158;2023-10-31T13:03:25;95236.10;;;15.35;70.25
34065;BME280;20339;49.754;20.158;2023-10-31T13:05:57;95234.34;;;15.35;70.26
34065;BME280;20339;49.754;20.158;2023-10-31T13:08:28;95219.95;;;15.35;70.40
34065;BME280;20339;49.754;20.158;2023-10-31T13:10:59;95219.98;;;15.34;70.26
34065;BME280;20339;49.754;20.158;2023-10-31T13:13:31;95213.69;;;15.30;70.43